Aviation Digital Data Service (ADDS)

Output produced by METARs form (1201 UTC 22 March 2019)
found at http://www.aviationweather.gov/metar/data/
 
Forecast for: WIHH (HALIM PERDANAKUS, ID)
Text: TAF WIHH 221100Z 2212/2312 28006KT 6000 FEW020
Forecast period: 1200 to 1700 UTC 22 March 2019
Forecast type: FROM: standard forecast or significant change
Winds: from the W (280 degrees) at 7 MPH (6 knots; 3.1 m/s)
Visibility: 4 miles (6 km)
Ceiling: at least 12,000 feet AGL
Clouds: few clouds at 2000 feet AGL
Weather: no significant weather forecast for this period
Text: BECMG 2217/2219 22003KT
Forecast period: 1700 UTC 22 March 2019 to 1200 UTC 23 March 2019
Forecast type: BECOMING: Conditions expected to become as follows by 1900 UTC 22 March 2019
Winds: from the SW (220 degrees) at 3 MPH (3 knots; 1.5 m/s)
Visibility: 4 miles (6 km)
Ceiling: at least 12,000 feet AGL
Clouds: few clouds at 2000 feet AGL
Weather: no significant weather forecast for this period